Storm Events Database

Event Details

Event Hail
Magnitude 1.00 in.
State OKLAHOMA
County/Area WASHITA
WFO OUN
Report Source Public
NCDC Data Source CSV
Begin Date 2007-06-14 00:00:00.0 CST-6
Begin Location 0NE SENTINEL
Begin Lat/Lon 35.15/-99.18
End Date 2007-06-14 00:00:00.0 CST-6
Deaths Direct/Indirect 0/0 (fatality details below, when available...)
Injuries Direct/Indirect 0/0
Property Damage 0.00K
Crop Damage 0.00K
Episode Narrative The very wet pattern continued over Oklahoma on the 13th. An outflow boundary was situated northwest to southeast over parts of northern and central Oklahoma. Other outflow boundaries were scattered over the western half of the state as well. A very slow moving upper level storm system drifted toward western Oklahoma. This helped thunderstorms develop over much of western Oklahoma. The thunderstorms produced very large hail, strong winds, and tornadoes over parts of the area. Also, due to the slow movement of the thunderstorms, flash flooding continued to be a concern with several roads washed out. The event lasted well into the evening before finally ending during the early morning hours. Monetary damages were estimated.
Event Narrative


     ‚Äč



All events for this episode:

Location County/Zone St. Date Time T.Z. Type Mag Dth Inj PrD CrD
Totals: 0 0 342.50K 0.00K
GUTHRIE ARPT LOGAN CO. OK 06/13/2007 11:00 CST-6 Flood 0 0 50.00K 0.00K
SHATTUCK ELLIS CO. OK 06/13/2007 13:30 CST-6 Hail 1.00 in. 0 0 0.00K 0.00K
ORIENTA MAJOR CO. OK 06/13/2007 14:13 CST-6 Hail 0.75 in. 0 0 0.00K 0.00K
SHATTUCK ELLIS CO. OK 06/13/2007 14:18 CST-6 Hail 0.75 in. 0 0 0.00K 0.00K
SEILING DEWEY CO. OK 06/13/2007 14:30 CST-6 Hail 1.00 in. 0 0 0.00K 0.00K
SHATTUCK ELLIS CO. OK 06/13/2007 15:00 CST-6 Hail 0.75 in. 0 0 0.00K 0.00K
CAMP HOUSTON WOODS CO. OK 06/13/2007 15:15 CST-6 Hail 0.88 in. 0 0 0.00K 0.00K
VINSON HARMON CO. OK 06/13/2007 15:15 CST-6 Hail 1.75 in. 0 0 0.00K 0.00K
VINSON HARMON CO. OK 06/13/2007 15:25 CST-6 Hail 1.50 in. 0 0 0.00K 0.00K
(GAG)GAGE AIRPORT ELLIS CO. OK 06/13/2007 15:28 CST-6 Hail 1.00 in. 0 0 0.00K 0.00K
ERICK BECKHAM CO. OK 06/13/2007 15:45 CST-6 Thunderstorm Wind 67 kts. MG 0 0 0.00K 0.00K
MAY HARPER CO. OK 06/13/2007 16:13 CST-6 Hail 1.00 in. 0 0 0.00K 0.00K
WAYNOKA WOODS CO. OK 06/13/2007 16:35 CST-6 Hail 0.75 in. 0 0 0.00K 0.00K
MAYFIELD BECKHAM CO. OK 06/13/2007 16:42 CST-6 Hail 1.75 in. 0 0 0.00K 0.00K
SWEETWATER ROGER MILLS CO. OK 06/13/2007 16:42 CST-6 Hail 1.75 in. 0 0 0.00K 0.00K
CATESBY ELLIS CO. OK 06/13/2007 17:00 CST-6 Hail 0.75 in. 0 0 0.00K 0.00K
CATESBY ELLIS CO. OK 06/13/2007 17:00 CST-6 Hail 0.75 in. 0 0 0.00K 0.00K
SEILING DEWEY CO. OK 06/13/2007 17:00 CST-6 Hail 1.25 in. 0 0 0.00K 0.00K
WOODWARD WOODWARD CO. OK 06/13/2007 17:00 CST-6 Hail 0.88 in. 0 0 0.00K 0.00K
(GAG)GAGE AIRPORT ELLIS CO. OK 06/13/2007 17:25 CST-6 Hail 0.88 in. 0 0 0.00K 0.00K
CARTER BECKHAM CO. OK 06/13/2007 17:30 CST-6 Hail 1.50 in. 0 0 0.00K 0.00K
ORIENTA MAJOR CO. OK 06/13/2007 17:31 CST-6 Tornado EF0 0 0 0.00K 0.00K
ORIENTA MAJOR CO. OK 06/13/2007 17:34 CST-6 Tornado EF0 0 0 0.00K 0.00K
ORIENTA MAJOR CO. OK 06/13/2007 17:42 CST-6 Tornado EF0 0 0 0.00K 0.00K
BESSIE WASHITA CO. OK 06/13/2007 18:15 CST-6 Hail 1.00 in. 0 0 2.00K 0.00K
BESSIE WASHITA CO. OK 06/13/2007 18:15 CST-6 Hail 1.00 in. 0 0 0.00K 0.00K
CLINTON CUSTER CO. OK 06/13/2007 18:15 CST-6 Thunderstorm Wind 52 kts. EG 0 0 0.00K 0.00K
CLINTON CUSTER CO. OK 06/13/2007 18:30 CST-6 Hail 0.75 in. 0 0 0.00K 0.00K
WEATHERFORD CUSTER CO. OK 06/13/2007 18:45 CST-6 Thunderstorm Wind 55 kts. EG 0 0 10.00K 0.00K
CLINTON CUSTER CO. OK 06/13/2007 18:55 CST-6 Thunderstorm Wind 56 kts. EG 0 0 15.00K 0.00K
SEILING DEWEY CO. OK 06/13/2007 18:55 CST-6 Hail 0.75 in. 0 0 0.00K 0.00K
THOMAS CUSTER CO. OK 06/13/2007 18:55 CST-6 Thunderstorm Wind 60 kts. EG 0 0 3.00K 0.00K
EAGLE CITY BLAINE CO. OK 06/13/2007 19:06 CST-6 Tornado EF0 0 0 0.00K 0.00K
CANTON BLAINE CO. OK 06/13/2007 19:10 CST-6 Thunderstorm Wind 61 kts. EG 0 0 5.00K 0.00K
CANTON BLAINE CO. OK 06/13/2007 19:10 CST-6 Thunderstorm Wind 65 kts. EG 0 0 6.00K 0.00K
FAIRVIEW MAJOR CO. OK 06/13/2007 19:15 CST-6 Flash Flood 0 0 0.00K 0.00K
CANTON BLAINE CO. OK 06/13/2007 19:18 CST-6 Hail 1.00 in. 0 0 0.00K 0.00K
ORIENTA MAJOR CO. OK 06/13/2007 19:45 CST-6 Thunderstorm Wind 52 kts. EG 0 0 0.00K 0.00K
WATONGA BLAINE CO. OK 06/13/2007 21:30 CST-6 Flash Flood 0 0 0.00K 0.00K
EAKLY CADDO CO. OK 06/13/2007 22:15 CST-6 Thunderstorm Wind 52 kts. EG 0 0 1.50K 0.00K
HOBART KIOWA CO. OK 06/13/2007 22:28 CST-6 Hail 1.00 in. 0 0 0.00K 0.00K
HOBART KIOWA CO. OK 06/13/2007 22:45 CST-6 Hail 0.88 in. 0 0 0.00K 0.00K
HOBART KIOWA CO. OK 06/13/2007 23:40 CST-6 Flash Flood 0 0 150.00K 0.00K
HOBART KIOWA CO. OK 06/13/2007 23:45 CST-6 Flash Flood 0 0 0.00K 0.00K
HOBART KIOWA CO. OK 06/13/2007 23:55 CST-6 Heavy Rain 0 0 0.00K 0.00K
SENTINEL WASHITA CO. OK 06/14/2007 00:00 CST-6 Hail 1.00 in. 0 0 0.00K 0.00K
HOBART KIOWA CO. OK 06/14/2007 00:30 CST-6 Flash Flood 0 0 0.00K 0.00K
HOBART KIOWA CO. OK 06/14/2007 02:30 CST-6 Flash Flood 0 0 100.00K 0.00K
Totals: 0 0 342.50K 0.00K